»·PEaware :: PCC343 KGEG-KPDX

PCC343 :: KGEG-KPDX

FLIGHT INFORMATION

Flight Status: Arrived
Operator: Unknown
More flights by this operator :: More flights under this callsign
Pilot: James W. (12414)
Aircraft: BOEING 737-800
(B738)
More flights by this aircraft type
Origin: KGEG Spokane Intl
United States
Destination: KPDX Portland Intl
United States
More flights between these airports :: More routes between these airports
Route: GEG6 ZEGRO DCT YENTL HHOOD4
File this flight plan on PilotEdge
Remarks:
Altitude:
(Current/Filed)
34,000ft
Speed:
(Current/Filed)
450kts
Departed: 08-Jul-20 05:12 PM
Arrived: 08-Jul-20 06:04 PM
Distance/Time
Traveled:
242nm/0:51
Distance/Time
To Go:
Arrived

Flight Plot

Page will automatically refresh every two minutes.


Map Options




Map Legend


Flown Route
Filed Route
Departure Airport
Arrival Airport
Navaid (VOR, NDB)
Fix

Horizontal Profiles

Position Reports

Time Latitude Longitude Heading Altitude Ground
Speed
08-Jul-20 16:54 47.623792 -117.535832 358 2381ft 0kts
08-Jul-20 16:55 47.623792 -117.535832 358 2381ft 0kts
08-Jul-20 16:56 47.623792 -117.535832 358 2381ft 0kts
08-Jul-20 16:57 47.623792 -117.535832 358 2381ft 0kts
08-Jul-20 16:58 47.623792 -117.535832 358 2381ft 0kts
08-Jul-20 16:59 47.623792 -117.535832 358 2381ft 0kts
08-Jul-20 17:00 47.623792 -117.535832 358 2381ft 0kts
08-Jul-20 17:01 47.623792 -117.535832 358 2381ft 0kts
08-Jul-20 17:02 47.623791 -117.535832 358 2381ft 0kts
08-Jul-20 17:03 47.623421 -117.535971 58 2381ft 2kts
08-Jul-20 17:04 47.623381 -117.536172 88 2381ft 0kts
08-Jul-20 17:05 47.623381 -117.536172 88 2381ft 0kts
08-Jul-20 17:06 47.623381 -117.536172 88 2381ft 0kts
08-Jul-20 17:07 47.623487 -117.534022 46 2381ft 18kts
08-Jul-20 17:08 47.628828 -117.525865 46 2381ft 29kts
08-Jul-20 17:09 47.631833 -117.518914 190 2381ft 11kts
08-Jul-20 17:10 47.630486 -117.519311 225 2381ft 9kts
08-Jul-20 17:11 47.611125 -117.548460 223 2760ft 193kts
08-Jul-20 17:12 47.566554 -117.616483 224 4796ft 261kts
08-Jul-20 17:13 47.513758 -117.695406 224 6953ft 271kts
08-Jul-20 17:14 47.466441 -117.784429 237 9085ft 279kts
08-Jul-20 17:15 47.421277 -117.884510 234 10780ft 326kts
08-Jul-20 17:16 47.363029 -118.007693 235 12663ft 377kts
08-Jul-20 17:17 47.301612 -118.136246 235 15492ft 387kts
08-Jul-20 17:18 47.237115 -118.266785 235 18003ft 397kts
08-Jul-20 17:19 47.171735 -118.400929 235 20253ft 407kts
08-Jul-20 17:20 47.104756 -118.538416 235 22262ft 417kts
08-Jul-20 17:21 47.045195 -118.660085 235 23844ft 424kts
08-Jul-20 17:22 46.975105 -118.802448 234 25426ft 435kts
08-Jul-20 17:23 46.902367 -118.949622 234 26361ft 457kts
08-Jul-20 17:24 46.827047 -119.101399 234 27566ft 467kts
08-Jul-20 17:25 46.751681 -119.252351 234 29709ft 454kts
08-Jul-20 17:26 46.677032 -119.400984 235 31460ft 449kts
08-Jul-20 17:27 46.603225 -119.547018 235 33085ft 443kts
08-Jul-20 17:28 46.529996 -119.691072 234 34005ft 442kts
08-Jul-20 17:29 46.456961 -119.833839 234 34013ft 436kts
08-Jul-20 17:30 46.383726 -119.976432 234 34024ft 438kts
08-Jul-20 17:31 46.310409 -120.118521 234 34027ft 437kts
08-Jul-20 17:32 46.237087 -120.259918 234 34027ft 437kts
08-Jul-20 17:33 46.163688 -120.400738 234 34027ft 437kts
08-Jul-20 17:34 46.089765 -120.541878 234 33638ft 444kts
08-Jul-20 17:35 46.018404 -120.677209 233 31848ft 417kts
08-Jul-20 17:36 45.950134 -120.805650 233 30020ft 424kts
08-Jul-20 17:37 45.879315 -120.938918 233 28043ft 429kts
08-Jul-20 17:38 45.808506 -121.071212 233 25996ft 387kts
08-Jul-20 17:39 45.746522 -121.184490 233 23989ft 338kts
08-Jul-20 17:40 45.689644 -121.288223 233 21987ft 329kts
08-Jul-20 17:41 45.634054 -121.390254 233 19974ft 320kts
08-Jul-20 17:42 45.650009 -121.497361 330 17986ft 335kts
08-Jul-20 17:43 45.742541 -121.487670 27 15943ft 351kts
08-Jul-20 17:44 45.786529 -121.369846 97 13924ft 349kts
08-Jul-20 17:45 45.727402 -121.290561 198 12917ft 297kts
08-Jul-20 17:46 45.658618 -121.355266 222 12916ft 296kts
08-Jul-20 17:47 45.605631 -121.445226 245 12247ft 299kts
08-Jul-20 17:48 45.574684 -121.554382 248 10738ft 292kts
08-Jul-20 17:49 45.544667 -121.661483 248 9228ft 287kts
08-Jul-20 17:50 45.530973 -121.766862 272 8612ft 256kts
08-Jul-20 17:51 45.525599 -121.867658 260 7437ft 254kts
08-Jul-20 17:52 45.513280 -121.968103 260 6137ft 257kts
08-Jul-20 17:53 45.501144 -122.066938 260 4909ft 230kts
08-Jul-20 17:54 45.491042 -122.149169 261 4023ft 191kts
08-Jul-20 17:55 45.481802 -122.224714 261 4007ft 191kts
08-Jul-20 17:56 45.472579 -122.300179 261 3239ft 189kts
08-Jul-20 17:57 45.492888 -122.362172 301 2928ft 144kts
08-Jul-20 17:58 45.514187 -122.412010 299 2785ft 146kts
08-Jul-20 17:59 45.532887 -122.462562 299 1572ft 141kts
08-Jul-20 18:00 45.552554 -122.511579 298 1285ft 142kts
08-Jul-20 18:01 45.571052 -122.559726 300 508ft 140kts
08-Jul-20 18:02 45.587307 -122.601269 299 39ft 45kts
08-Jul-20 18:03 45.589505 -122.604496 40 39ft 0kts
08-Jul-20 18:04 45.589749 -122.604197 43 39ft 12kts
08-Jul-20 18:05 45.589863 -122.600065 85 39ft 0kts

Navigation Log

Ident Type
Flight plan parsing failed, navigation log unavailable